Station: Canberra

  Atmospheric Gas Attenuation - ITU Rec 676-11   --------------- db/100km ---------------
Date Time Temp RH % AH g/m3 Dew Point Wind Direction Speed kph Gust kph Barometer mB Rainfall Since 9am 24GHz 47GHz 76GHz 122GHz 134GHz 241GHz
23 10:00 2.9 100 5.91 2.9 0 0 1030.1 0 14.3 25.2 34.6 90.1 75.4 256.1
23 09:50 3 100 5.95 3 2 4 1030 0 14.4 25.2 34.7 90.4 75.8 257.7
23 09:40 2.7 100 5.83 2.7 0 0 1030.1 0 14.1 25.1 34.3 89.4 74.5 252.8
23 09:30 2.7 100 5.83 2.7 0 0 1030.1 0 14.1 25.1 34.3 89.4 74.5 252.8
23 09:20 2.4 100 5.72 2.4 6 7 1030.1 0 13.9 25.0 34.0 88.5 73.2 248.4
23 09:10 2.1 100 5.6 2.1 6 7 1030.2 0 13.6 24.9 33.6 87.5 71.8 243.5
23 09:00 2 100 5.56 2 7 7 1030.1 0 13.6 24.9 33.5 87.2 71.4 241.9
23 08:50 1.9 100 5.53 1.9 9 9 1030.2 0.2 13.5 24.8 33.4 86.9 71.0 240.7
23 08:40 1.6 100 5.41 1.6 7 9 1030 0.2 13.2 24.7 33.0 85.9 69.6 235.7
23 08:30 1.7 100 5.45 1.7 7 9 1029.9 0.2 13.3 24.8 33.1 86.2 70.1 237.4
23 08:20 1.9 100 5.53 1.9 7 7 1029.8 0.2 13.5 24.8 33.4 86.9 71.0 240.6
23 08:10 1.7 100 5.45 1.7 4 6 1029.6 0.2 13.3 24.7 33.1 86.2 70.1 237.3
23 08:00 1.5 100 5.38 1.5 6 6 1029.6 0.2 13.2 24.7 32.9 85.6 69.3 234.5
23 07:50 1.2 100 5.27 1.2 7 7 1029.7 0.2 13.0 24.6 32.6 84.7 68.0 230.0
23 07:40 1 100 5.2 1 7 7 1029.6 0 12.8 24.5 32.4 84.2 67.2 227.2
23 07:30 0.6 100 5.06 0.6 0 0 1029.6 0 12.5 24.4 31.9 83.0 65.6 221.5
23 07:20 0.4 100 4.99 0.4 0 0 1029.5 0 12.4 24.3 31.7 82.4 64.8 218.7
23 07:10 0.2 100 4.92 0.2 4 6 1029.4 0 12.2 24.3 31.5 81.9 64.0 215.8
23 07:00 0 100 4.85 0 7 7 1029.2 0 12.1 24.2 31.3 81.3 63.2 212.9
23 06:50 -0.1 100 4.82 -0.1 7 9 1029.2 0 12.0 24.2 31.2 81.0 62.9 211.7
23 06:40 0.2 100 4.92 0.2 7 7 1029.1 0 12.2 24.2 31.5 81.8 64.0 215.7
23 06:30 0.1 100 4.89 0.1 0 0 1028.9 0 12.2 24.2 31.4 81.6 63.6 214.5
23 06:20 0.1 100 4.89 0.1 0 0 1028.7 0 12.2 24.2 31.4 81.6 63.6 214.5
23 06:10 0 100 4.85 0 0 0 1028.6 0 12.1 24.2 31.2 81.2 63.2 212.8
23 06:00 -0.2 100 4.79 -0.2 0 0 1028.5 0 12.0 24.1 31.1 80.7 62.5 210.4
23 05:50 -0.4 100 4.72 -0.4 0 0 1028.4 0 11.8 24.0 30.8 80.1 61.7 207.5
23 05:40 -0.6 100 4.65 -0.6 0 0 1028.3 0 11.7 24.0 30.6 79.6 60.9 204.6
23 05:30 -0.8 100 4.59 -0.8 6 6 1028.3 0 11.6 23.9 30.5 79.1 60.2 202.2
23 05:20 -1.1 100 4.5 -1.1 0 0 1028.3 0 11.4 23.9 30.2 78.4 59.2 198.6
23 05:10 -1.2 100 4.46 -1.2 7 7 1028.2 0 11.3 23.8 30.1 78.0 58.7 196.9
23 05:00 -1 100 4.53 -1 0 0 1028 0 11.4 23.9 30.3 78.6 59.5 199.8
23 04:50 -1.2 100 4.46 -1.2 0 0 1028.1 0 11.3 23.8 30.1 78.0 58.7 196.9
23 04:40 -0.9 100 4.56 -0.9 0 0 1028 0 11.5 23.9 30.4 78.8 59.8 201.0
23 04:30 -1 100 4.53 -1 0 0 1028.1 0 11.4 23.9 30.3 78.6 59.5 199.8
23 04:20 -0.9 100 4.56 -0.9 0 0 1028 0 11.5 23.9 30.4 78.8 59.8 201.0
23 04:10 -1.5 100 4.37 -1.5 0 0 1028 0 11.1 23.7 29.8 77.3 57.7 193.2
23 04:00 -1.6 99 4.3 -1.7 0 0 1027.9 0 11.0 23.6 29.5 76.6 56.8 190.1
23 03:50 -2 99 4.18 -2.1 0 0 1027.8 0 10.7 23.5 29.2 75.7 55.4 185.2
23 03:40 -2.1 99 4.15 -2.2 0 0 1027.8 0 10.6 23.5 29.1 75.4 55.1 184.0
23 03:30 -2.2 99 4.12 -2.3 7 7 1027.9 0 10.6 23.5 29.0 75.2 54.7 182.8
23 03:20 -1.8 99 4.24 -1.9 9 9 1027.8 0 10.8 23.6 29.3 76.1 56.1 187.6
23 03:10 -1 99 4.48 -1.1 7 7 1027.8 0 11.3 23.8 30.0 78.0 58.8 197.3
23 03:00 -0.7 100 4.62 -0.7 0 0 1028 0 11.6 23.9 30.5 79.3 60.5 203.4
23 02:50 -0.6 99 4.61 -0.7 0 0 1028 0 11.6 23.9 30.4 79.1 60.3 202.6
23 02:40 -0.6 100 4.65 -0.6 0 0 1028 0 11.7 24.0 30.6 79.5 60.8 204.5
23 02:30 -0.3 99 4.7 -0.4 0 0 1028 0 11.8 24.0 30.7 79.8 61.3 206.2
23 02:20 -0.3 99 4.7 -0.4 0 0 1028 0 11.8 24.0 30.7 79.8 61.3 206.2
23 02:10 -0.7 99 4.58 -0.8 0 0 1028 0 11.5 23.9 30.4 78.8 60.0 201.4
23 02:00 -1 99 4.48 -1.1 4 4 1028 0 11.3 23.8 30.1 78.0 58.8 197.3
23 01:50 -0.6 99 4.61 -0.7 6 6 1028 0 11.6 23.9 30.4 79.1 60.3 202.6
23 01:40 -0.4 99 4.67 -0.5 0 0 1027.9 0 11.7 23.9 30.6 79.5 61.0 205.0
23 01:30 -0.3 99 4.7 -0.4 0 0 1027.9 0 11.8 24.0 30.7 79.8 61.3 206.2
23 01:20 0.2 99 4.87 0.1 0 0 1027.9 0 12.1 24.1 31.2 81.2 63.2 213.1
23 01:10 0.3 99 4.9 0.2 0 0 1028 0 12.2 24.1 31.3 81.4 63.6 214.3
23 01:00 0.3 99 4.9 0.2 0 0 1028 0 12.2 24.1 31.3 81.4 63.6 214.3
23 00:50 0.9 99 5.11 0.8 0 0 1028 0 12.6 24.3 31.9 83.1 66.0 222.8
23 00:40 0.9 99 5.11 0.8 0 0 1028 0 12.6 24.3 31.9 83.1 66.0 222.8
23 00:30 0.7 99 5.04 0.6 0 0 1028 0 12.5 24.3 31.7 82.5 65.2 220.0
23 00:20 1 99 5.14 0.9 0 0 1028.1 0 12.7 24.4 32.0 83.3 66.3 224.0
23 00:10 0.4 99 4.94 0.3 0 0 1028 0 12.3 24.2 31.4 81.7 64.0 215.9
23 00:00 0.8 100 5.13 0.8 0 0 1028.1 0 12.7 24.4 32.1 83.5 66.3 224.1
22 23:50 1.4 100 5.34 1.4 7 9 1028.1 0 13.1 24.6 32.7 85.2 68.7 232.5
22 23:40 0.8 99 5.07 0.7 9 11 1028.2 0 12.5 24.3 31.8 82.8 65.5 221.2
22 23:30 0.8 99 5.07 0.7 11 11 1028.1 0 12.5 24.3 31.8 82.8 65.5 221.2
22 23:20 1 99 5.14 0.9 7 7 1028.1 0 12.7 24.4 32.0 83.3 66.3 224.0
22 23:10 1.4 99 5.29 1.3 0 0 1028.1 0 13.0 24.5 32.5 84.6 68.0 230.1
22 23:00 1.3 99 5.25 1.2 0 0 1028.1 0 12.9 24.5 32.4 84.3 67.6 228.5
22 22:50 1 99 5.14 0.9 0 0 1028 0 12.7 24.4 32.0 83.3 66.3 224.0
22 22:40 1.8 99 5.43 1.7 9 11 1028 0 13.3 24.6 32.9 85.7 69.6 235.7
22 22:30 2.4 99 5.66 2.3 9 11 1028 0 13.8 24.8 33.6 87.6 72.3 245.1
22 22:20 2.2 99 5.58 2.1 7 9 1028.2 0 13.6 24.8 33.4 87.0 71.3 241.8
22 22:10 2.2 99 5.58 2.1 11 11 1028.1 0 13.6 24.8 33.4 87.0 71.3 241.8
22 22:00 2.5 99 5.7 2.4 11 11 1028.1 0 13.8 24.9 33.8 88.0 72.7 246.7
22 21:50 2 97 5.4 1.6 9 9 1028 0 13.2 24.5 32.7 85.2 69.0 233.7
22 21:40 3 92 5.48 1.8 0 0 1027.9 0 13.3 24.4 32.6 85.0 69.2 234.5
22 21:30 5.7 96 6.84 5.1 7 7 1027.8 0 16.2 25.9 37.1 97.0 85.3 291.2
22 21:20 5.6 94 6.65 4.7 11 11 1027.7 0 15.8 25.6 36.4 95.0 82.7 282.3
22 21:10 5.9 95 6.85 5.2 13 13 1027.7 0 16.2 25.8 37.1 96.9 85.2 291.0
22 21:00 6 95 6.9 5.3 13 13 1027.7 0 16.3 25.9 37.2 97.3 85.8 293.0
22 20:50 5.9 95 6.85 5.2 11 13 1027.6 0 16.2 25.8 37.1 96.9 85.2 290.9
22 20:40 6 96 6.97 5.4 11 13 1027.6 0 16.4 26.0 37.5 98.1 86.7 296.4
22 20:30 5.2 95 6.55 4.5 9 9 1027.4 0 15.6 25.5 36.1 94.3 81.8 278.8
22 20:20 5.8 94 6.74 4.9 9 11 1027.3 0 15.9 25.7 36.6 95.7 83.7 285.9
22 20:10 6 95 6.9 5.3 11 11 1027.3 0 16.3 25.9 37.2 97.3 85.7 292.9
22 20:00 5.5 93 6.54 4.5 9 11 1027.3 0 15.5 25.4 35.9 93.8 81.3 277.3
22 19:50 6.3 93 6.89 5.3 11 11 1027.2 0 16.3 25.8 37.0 96.8 85.3 291.3
22 19:40 6.2 91 6.7 4.8 9 11 1027.2 0 15.8 25.5 36.3 94.8 82.8 282.5
22 19:30 6.4 89 6.64 4.7 11 11 1027.1 0 15.7 25.3 35.9 93.8 81.7 278.8
22 19:20 6.4 88 6.56 4.6 11 13 1027.1 0 15.5 25.2 35.6 93.0 80.6 275.0
22 19:10 6.5 87 6.53 4.5 9 9 1027.1 0 15.5 25.1 35.4 92.5 80.1 273.2
22 19:00 7.3 86 6.8 5.1 2 6 1027.1 0 16.0 25.3 36.2 94.5 82.9 283.3
22 18:50 6.5 87 6.53 4.5 9 9 1026.9 0 15.5 25.1 35.4 92.5 80.1 273.2
22 18:40 6.7 85 6.46 4.4 11 11 1026.9 0 15.3 24.9 35.1 91.5 78.9 269.2
22 18:30 7.1 83 6.48 4.4 11 15 1026.8 0 15.3 24.9 35.0 91.2 78.8 268.7
22 18:20 7.3 82 6.48 4.4 13 13 1026.8 0 15.3 24.8 34.9 91.0 78.6 268.0
22 18:10 7.3 80 6.32 4.1 13 13 1026.7 0 15.0 24.5 34.2 89.3 76.4 260.5
22 18:00 7.6 75 6.04 3.5 13 15 1026.6 0 14.4 24.0 33.0 85.9 72.4 246.5
22 17:50 8.7 72 6.23 3.9 15 17 1026.4 0 14.7 24.0 33.3 86.7 73.9 251.7
22 17:40 9.3 69 6.2 3.9 15 19 1026.4 0 14.7 23.8 32.9 85.7 72.9 248.5
22 17:30 9.5 70 6.37 4.3 20 26 1026.3 0 15.0 24.0 33.5 87.3 74.9 255.5

Last Refresh: 23-Jul-2024 09:43:38

Bureau of Meteorology